Butler, OK (73625)

9:34 PM CDT on October 22, 2014 (GMT -0500)
Clinton Municipal | Change Station
CLOSE
Current Station
Airport
Location: Clinton,
Elevation: 1614 ft
Nearby Weather Stations

Elev 1614 ft 35.54 °N, 98.93 °W | Updated 19 minutes ago

Overcast
Overcast
61 °F
Feels Like 61 °F
N
4
Wind Variable Wind from South

Today
High -- | Low -- °F
--% Chance of Precip.
Yesterday
High -- | Low -- °F
Precip. -- in
7:49 AM 6:52 PM
Waning Crescent, 1% visible
Pressure 30.13 in
Visibility 10.0 miles
Clouds Overcast 10000 ft
Dew Point 57 °F
Humidity 88%
Rainfall 0.04 in
Snow Depth Not available.
UV 0 out of 12
Pollen 5.50 out of 12
Air Quality Not available.
Flu Activity Not available.
METAR KCLK 230215Z AUTO 17003KT 10SM -RA OVC100 16/14 A3013 RMK AO2

More Conditions Fewer Conditions

Pressure 30.13 in
Visibility 10.0 miles
Clouds Overcast 10000 ft
Dew Point 57 °F
Humidity 88%
Rainfall 0.04 in
Snow Depth Not available.
UV 0 out of 12
Pollen 5.50 out of 12
Air Quality Not available.
Flu Activity Not available.
METAR KCLK 230215Z AUTO 17003KT 10SM -RA OVC100 16/14 A3013 RMK AO2

More Conditions Fewer Conditions

10-Day Weather Forecast

Almanac

Astronomy

Oct. 22, 2014 Rise Set
Actual Time 7:49 AM CDT 6:52 PM CDT
Civil Twilight 7:23 AM CDT 7:18 PM CDT
Nautical Twilight 6:53 AM CDT 7:48 PM CDT
Astronomical Twilight 6:24 AM CDT 8:17 PM CDT
Moon 6:35 AM CDT (10/22) 6:18 PM CDT (10/22)
Length of Visible Light 11h 54m
Length of Day
11h 02m
Tomorrow will be 2m 6s shorter.
Waning Crescent, 1% of the Moon is Illuminated
Today
Waning Crescent
Oct 23
New
Oct 30
First Quarter
Nov 6
Full
Nov 14
Last Quarter

Today's Extremes

State Highs State Lows

Community

WunderPhotos

Upload Photos

1,764,109 photos uploaded!

Nearby

Snow Depth

Station Depth Elevation
No new snow has been reported.

Earthquake Activity

City Distance Mag. Time & Date
Anthony, Kansas 122 miles 3.3 6:48 PM CDT
2014-10-22
Mooreland, Oklahoma 61 miles 2.8 5:31 PM CDT
2014-10-22
Mooreland, Oklahoma 59 miles 2.5 11:19 AM CDT
2014-10-22
Mooreland, Oklahoma 61 miles 2.8 11:04 AM CDT
2014-10-22
Minimum magnitude displayed is 2.5.

Coastal Water Temperatures

Place Temperature
No Stations Reporting

Nearby Weather Stations